createdAt,value
2019-03-21T08:44:22.472Z,1029.76
2019-03-21T08:45:22.459Z,1029.70
2019-03-21T08:46:22.458Z,1029.68
2019-03-21T08:47:22.428Z,1029.77
2019-03-21T08:48:22.417Z,1029.77
2019-03-21T08:49:22.408Z,1029.79
2019-03-21T08:50:22.395Z,1029.70
2019-03-21T08:51:22.385Z,1029.71
2019-03-21T08:52:22.383Z,1029.73
2019-03-21T08:53:22.361Z,1029.76
2019-03-21T08:54:22.352Z,1029.75
2019-03-21T08:55:22.346Z,1029.77
2019-03-21T08:56:22.327Z,1029.83
2019-03-21T08:57:22.328Z,1029.78
2019-03-21T08:58:22.308Z,1029.81
2019-03-21T08:59:22.295Z,1029.78
2019-03-21T09:00:33.586Z,1029.71
2019-03-21T09:01:23.272Z,1029.71
2019-03-21T09:02:22.270Z,1029.67
2019-03-21T09:03:22.252Z,1029.76
2019-03-21T09:04:22.241Z,1029.71
2019-03-21T09:05:22.229Z,1029.74
2019-03-21T09:06:22.219Z,1029.63
2019-03-21T09:07:22.216Z,1029.70
2019-03-21T09:08:22.196Z,1029.66
2019-03-21T09:09:22.183Z,1029.67
2019-03-21T09:10:22.175Z,1029.64
2019-03-21T09:11:22.164Z,1029.68
2019-03-21T09:12:22.164Z,1029.65
2019-03-21T09:13:22.148Z,1029.65
2019-03-21T09:14:22.130Z,1029.70
2019-03-21T09:15:22.117Z,1029.67
2019-03-21T09:16:22.105Z,1029.68
2019-03-21T09:17:22.104Z,1029.62
2019-03-21T09:18:22.083Z,1029.74
2019-03-21T09:19:22.072Z,1029.66
2019-03-21T09:20:22.062Z,1029.70
2019-03-21T09:21:22.050Z,1029.72
2019-03-21T09:22:22.067Z,1029.65
2019-03-21T09:23:22.028Z,1029.64
2019-03-21T09:24:22.018Z,1029.72
2019-03-21T09:25:22.009Z,1029.67
2019-03-21T09:26:21.998Z,1029.67
2019-03-21T09:27:21.995Z,1029.67
2019-03-21T09:28:21.976Z,1029.66
2019-03-21T09:29:21.962Z,1029.64
2019-03-21T09:30:21.951Z,1029.68
2019-03-21T09:31:21.940Z,1029.72
2019-03-21T09:32:22.030Z,1029.71
2019-03-21T09:33:21.918Z,1029.62
2019-03-21T09:34:21.909Z,1029.58
2019-03-21T09:35:21.897Z,1029.56
2019-03-21T09:36:21.885Z,1029.53
2019-03-21T09:37:21.883Z,1029.58
2019-03-21T09:38:21.869Z,1029.54
2019-03-21T09:39:21.854Z,1029.55
2019-03-21T09:40:21.842Z,1029.59
2019-03-21T09:41:21.833Z,1029.58
2019-03-21T09:42:21.829Z,1029.65
2019-03-21T09:43:21.811Z,1029.60
2019-03-21T09:44:21.796Z,1029.56
2019-03-21T09:45:21.784Z,1029.66
2019-03-21T09:46:21.777Z,1029.72
2019-03-21T09:47:21.777Z,1029.76
2019-03-21T09:48:21.751Z,1029.74
2019-03-21T09:49:21.743Z,1029.77
2019-03-21T09:50:21.731Z,1029.81
2019-03-21T09:51:30.638Z,1029.75
2019-03-21T09:52:22.722Z,1029.81
2019-03-21T09:53:21.698Z,1029.79
2019-03-21T09:54:21.689Z,1029.72
2019-03-21T09:55:21.676Z,1029.79
2019-03-21T09:56:23.934Z,1029.69
2019-03-21T09:57:21.656Z,1029.75
2019-03-21T09:58:21.653Z,1029.74
2019-03-21T09:59:21.632Z,1029.74
2019-03-21T10:00:21.621Z,1029.74
2019-03-21T10:01:21.611Z,1029.65
2019-03-21T10:02:21.600Z,1029.64
2019-03-21T10:03:21.599Z,1029.65
2019-03-21T10:04:21.592Z,1029.70
2019-03-21T10:05:21.568Z,1029.75
2019-03-21T10:06:21.557Z,1029.81
2019-03-21T10:07:21.547Z,1029.77
2019-03-21T10:08:21.547Z,1029.80
2019-03-21T10:09:21.525Z,1029.79
2019-03-21T10:10:21.517Z,1029.75
2019-03-21T10:11:21.506Z,1029.75
2019-03-21T10:12:21.493Z,1029.81
2019-03-21T10:13:21.493Z,1029.77
2019-03-21T10:14:21.471Z,1029.75
2019-03-21T10:15:21.462Z,1029.75
2019-03-21T10:16:21.451Z,1029.78
2019-03-21T10:17:21.441Z,1029.73
2019-03-21T10:18:21.440Z,1029.77
2019-03-21T10:19:21.422Z,1029.81
2019-03-21T10:20:21.410Z,1029.78
2019-03-21T10:21:21.399Z,1029.80
2019-03-21T10:22:21.390Z,1029.78
2019-03-21T10:23:21.387Z,1029.80
2019-03-21T10:24:21.366Z,1029.81
2019-03-21T10:25:21.356Z,1029.84
2019-03-21T10:26:21.345Z,1029.73
2019-03-21T10:27:21.336Z,1029.77
2019-03-21T10:28:21.335Z,1029.62
2019-03-21T10:29:21.340Z,1029.69
2019-03-21T10:30:21.305Z,1029.71
2019-03-21T10:31:21.294Z,1029.71
2019-03-21T10:32:21.283Z,1029.77
2019-03-21T10:33:21.281Z,1029.81
2019-03-21T10:34:21.270Z,1029.80
2019-03-21T10:35:21.263Z,1029.76
2019-03-21T10:36:21.240Z,1029.68
2019-03-21T10:37:21.231Z,1029.70
2019-03-21T10:38:21.238Z,1029.69
2019-03-21T10:39:21.213Z,1029.64
2019-03-21T10:40:21.199Z,1029.58
2019-03-21T10:41:21.191Z,1029.59
2019-03-21T10:42:21.181Z,1029.49
2019-03-21T10:43:21.178Z,1029.43
2019-03-21T10:44:21.158Z,1029.46
2019-03-21T10:45:21.146Z,1029.46
2019-03-21T10:46:21.141Z,1029.42
2019-03-21T10:47:21.128Z,1029.43
2019-03-21T10:48:23.486Z,1029.39
2019-03-21T10:49:21.105Z,1029.46
2019-03-21T10:50:21.098Z,1029.40
2019-03-21T10:51:21.083Z,1029.39
2019-03-21T10:52:21.071Z,1029.36
2019-03-21T10:53:21.073Z,1029.29
2019-03-21T10:54:23.532Z,1029.30
2019-03-21T10:55:21.045Z,1029.30
2019-03-21T10:56:21.035Z,1029.28
2019-03-21T10:57:21.021Z,1029.29
2019-03-21T10:58:21.010Z,1029.28
2019-03-21T10:59:21.007Z,1029.31
2019-03-21T11:00:20.990Z,1029.28
2019-03-21T11:01:20.981Z,1029.27
2019-03-21T11:02:20.965Z,1029.29
2019-03-21T11:03:20.955Z,1029.29
2019-03-21T11:04:20.953Z,1029.23
2019-03-21T11:05:23.069Z,1029.30
2019-03-21T11:06:20.924Z,1029.26
2019-03-21T11:07:20.913Z,1029.26
2019-03-21T11:08:20.903Z,1029.27
2019-03-21T11:09:20.903Z,1029.23
2019-03-21T11:10:20.879Z,1029.27
2019-03-21T11:11:20.868Z,1029.22
2019-03-21T11:12:20.858Z,1029.25
2019-03-21T11:13:20.849Z,1029.23
2019-03-21T11:14:20.849Z,1029.19
2019-03-21T11:15:20.830Z,1029.21
2019-03-21T11:16:20.815Z,1029.26
2019-03-21T11:17:20.805Z,1029.22
2019-03-21T11:18:20.837Z,1029.21
2019-03-21T11:19:20.790Z,1029.23
2019-03-21T11:20:20.772Z,1029.25
2019-03-21T11:21:20.759Z,1029.27
2019-03-21T11:22:20.749Z,1029.18
2019-03-21T11:23:20.740Z,1029.22
2019-03-21T11:24:20.736Z,1029.14
2019-03-21T11:25:20.717Z,1029.14
2019-03-21T11:26:20.706Z,1029.13
2019-03-21T11:27:20.696Z,1029.16
2019-03-21T11:28:20.685Z,1029.08
2019-03-21T11:29:20.683Z,1029.06
2019-03-21T11:30:20.664Z,1029.10
2019-03-21T11:31:20.652Z,1029.08
2019-03-21T11:32:20.642Z,1029.00
2019-03-21T11:33:20.630Z,1029.02
2019-03-21T11:34:20.632Z,1029.02
2019-03-21T11:35:20.608Z,1028.98
2019-03-21T11:36:20.601Z,1029.00
2019-03-21T11:37:20.587Z,1029.05
2019-03-21T11:38:20.577Z,1029.06
2019-03-21T11:39:20.576Z,1029.05
2019-03-21T11:40:20.556Z,1029.02
2019-03-21T11:41:20.544Z,1028.93
2019-03-21T11:42:20.535Z,1028.99
2019-03-21T11:43:20.520Z,1029.01
2019-03-21T11:44:20.522Z,1029.09
2019-03-21T11:45:20.505Z,1029.02
2019-03-21T11:46:20.504Z,1029.03
2019-03-21T11:47:20.486Z,1029.02
2019-03-21T11:48:20.481Z,1029.07
2019-03-21T11:49:20.475Z,1028.99
2019-03-21T11:50:20.447Z,1029.04
2019-03-21T11:51:20.436Z,1029.12
2019-03-21T11:52:20.428Z,1029.14
2019-03-21T11:53:20.427Z,1029.14
2019-03-21T11:54:20.405Z,1029.08
2019-03-21T11:55:20.426Z,1029.13
2019-03-21T11:56:20.416Z,1029.12
2019-03-21T11:57:20.372Z,1029.13
2019-03-21T11:58:20.364Z,1029.10
2019-03-21T11:59:20.352Z,1029.09
2019-03-21T12:00:20.349Z,1029.04
2019-03-21T12:01:20.330Z,1029.03
2019-03-21T12:02:27.017Z,1029.06
2019-03-21T12:03:21.306Z,1029.02
2019-03-21T12:04:20.304Z,1029.05
2019-03-21T12:05:20.299Z,1029.04
2019-03-21T12:06:20.278Z,1029.03
2019-03-21T12:07:20.265Z,1029.04
2019-03-21T12:08:20.258Z,1029.02
2019-03-21T12:09:20.246Z,1029.02
2019-03-21T12:10:20.290Z,1029.04
2019-03-21T12:11:21.421Z,1029.04
2019-03-21T12:12:20.220Z,1028.96
2019-03-21T12:13:20.203Z,1028.92
2019-03-21T12:14:20.209Z,1028.90
2019-03-21T12:15:20.194Z,1028.93
2019-03-21T12:16:20.172Z,1028.95
2019-03-21T12:17:20.167Z,1028.96
2019-03-21T12:18:20.157Z,1028.97
2019-03-21T12:19:20.146Z,1028.88
2019-03-21T12:20:20.142Z,1028.90
2019-03-21T12:21:20.122Z,1028.88
2019-03-21T12:22:29.572Z,1028.86
2019-03-21T12:23:21.100Z,1028.81
2019-03-21T12:24:20.090Z,1028.83
2019-03-21T12:25:20.101Z,1028.86
2019-03-21T12:26:20.076Z,1028.85
2019-03-21T12:27:20.062Z,1028.86
2019-03-21T12:28:20.048Z,1028.79
2019-03-21T12:29:20.044Z,1028.80
2019-03-21T12:30:20.043Z,1028.82
2019-03-21T12:31:20.019Z,1028.80
2019-03-21T12:32:20.014Z,1028.80
2019-03-21T12:33:20.004Z,1028.76
2019-03-21T12:34:19.988Z,1028.78
2019-03-21T12:35:19.977Z,1028.75
2019-03-21T12:36:19.978Z,1028.80
2019-03-21T12:37:19.957Z,1028.73
2019-03-21T12:38:19.954Z,1028.77
2019-03-21T12:39:19.940Z,1028.71
2019-03-21T12:40:19.929Z,1028.71
2019-03-21T12:41:19.926Z,1028.76
2019-03-21T12:42:19.906Z,1028.78
2019-03-21T12:43:19.897Z,1028.75
2019-03-21T12:44:19.893Z,1028.76
2019-03-21T12:45:19.878Z,1028.70
2019-03-21T12:46:19.876Z,1028.71
2019-03-21T12:47:30.631Z,1028.72
2019-03-21T12:48:20.847Z,1028.70
2019-03-21T12:49:19.834Z,1028.64
2019-03-21T12:50:19.829Z,1028.73
2019-03-21T12:51:19.824Z,1028.60
2019-03-21T12:52:19.805Z,1028.62
2019-03-21T12:53:19.796Z,1028.60
2019-03-21T12:54:19.787Z,1028.63
2019-03-21T12:55:19.777Z,1028.58
2019-03-21T12:56:19.941Z,1028.53
2019-03-21T12:57:19.757Z,1028.53
2019-03-21T12:58:19.746Z,1028.56
2019-03-21T12:59:19.736Z,1028.43
2019-03-21T13:00:19.726Z,1028.37
2019-03-21T13:01:19.723Z,1028.34
2019-03-21T13:02:31.827Z,1028.24
2019-03-21T13:03:20.698Z,1028.21
2019-03-21T13:04:19.684Z,1028.17
2019-03-21T13:05:19.677Z,1028.15
2019-03-21T13:06:19.674Z,1028.14
2019-03-21T13:07:20.093Z,1028.16
2019-03-21T13:08:19.644Z,1028.18
2019-03-21T13:09:19.632Z,1028.15
2019-03-21T13:10:19.623Z,1028.15
2019-03-21T13:11:19.630Z,1028.17
2019-03-21T13:12:19.608Z,1028.14
2019-03-21T13:13:19.591Z,1028.23
2019-03-21T13:14:19.580Z,1028.20
2019-03-21T13:15:29.454Z,1028.14
2019-03-21T13:16:20.573Z,1028.13
2019-03-21T13:17:19.552Z,1028.09
2019-03-21T13:18:19.540Z,1028.08
2019-03-21T13:19:19.530Z,1028.05
2019-03-21T13:20:19.521Z,1027.99
2019-03-21T13:21:19.510Z,1028.00
2019-03-21T13:22:19.508Z,1027.97
2019-03-21T13:23:19.488Z,1027.90
2019-03-21T13:24:19.732Z,1027.85
2019-03-21T13:25:19.467Z,1027.86
2019-03-21T13:26:19.455Z,1027.84
2019-03-21T13:27:19.454Z,1027.82
2019-03-21T13:28:19.438Z,1027.79
2019-03-21T13:29:19.431Z,1027.78
2019-03-21T13:30:19.413Z,1027.87
2019-03-21T13:31:19.406Z,1027.80
2019-03-21T13:32:19.400Z,1027.77
2019-03-21T13:33:19.382Z,1027.73
2019-03-21T13:34:19.373Z,1027.72
2019-03-21T13:35:19.365Z,1027.80
2019-03-21T13:36:19.350Z,1027.77
2019-03-21T13:37:19.347Z,1027.74
2019-03-21T13:38:19.327Z,1027.72
2019-03-21T13:39:19.319Z,1027.76
2019-03-21T13:40:19.308Z,1027.74
2019-03-21T13:41:19.306Z,1027.71
2019-03-21T13:42:19.294Z,1027.72
2019-03-21T13:43:19.274Z,1027.68
2019-03-21T13:44:19.264Z,1027.71
2019-03-21T13:45:19.255Z,1027.73
2019-03-21T13:46:19.248Z,1027.68
2019-03-21T13:47:19.240Z,1027.62
2019-03-21T13:48:19.219Z,1027.62
2019-03-21T13:49:19.211Z,1027.64
2019-03-21T13:50:19.200Z,1027.61
2019-03-21T13:51:19.188Z,1027.60
2019-03-21T13:52:19.186Z,1027.60
2019-03-21T13:53:19.337Z,1027.62
2019-03-21T13:54:19.159Z,1027.52
2019-03-21T13:55:19.144Z,1027.55
2019-03-21T13:56:19.140Z,1027.58
2019-03-21T13:57:19.145Z,1027.46
2019-03-21T13:58:19.113Z,1027.53
2019-03-21T13:59:19.103Z,1027.54
2019-03-21T14:00:19.093Z,1027.49
2019-03-21T14:01:19.080Z,1027.44
2019-03-21T14:02:19.081Z,1027.50
2019-03-21T14:03:25.066Z,1027.47
2019-03-21T14:04:20.048Z,1027.48
2019-03-21T14:05:19.037Z,1027.42
2019-03-21T14:06:19.025Z,1027.47
2019-03-21T14:07:19.018Z,1027.46
2019-03-21T14:08:19.011Z,1027.42
2019-03-21T14:09:20.418Z,1027.44
2019-03-21T14:10:18.982Z,1027.39
2019-03-21T14:11:19.404Z,1027.46
2019-03-21T14:12:18.960Z,1027.42
2019-03-21T14:13:18.958Z,1027.43
2019-03-21T14:14:18.939Z,1027.37
2019-03-21T14:15:18.929Z,1027.37
2019-03-21T14:16:18.916Z,1027.30
2019-03-21T14:17:22.277Z,1027.28
2019-03-21T14:18:18.904Z,1027.30
2019-03-21T14:19:18.884Z,1027.27
2019-03-21T14:20:18.874Z,1027.23
2019-03-21T14:21:18.870Z,1027.22
2019-03-21T14:22:21.289Z,1027.25
2019-03-21T14:23:18.848Z,1027.25
2019-03-21T14:24:18.832Z,1027.13
2019-03-21T14:25:18.819Z,1027.16
2019-03-21T14:26:18.808Z,1027.16
2019-03-21T14:27:18.796Z,1027.19
2019-03-21T14:28:18.804Z,1027.24
2019-03-21T14:29:18.778Z,1027.20
2019-03-21T14:30:18.770Z,1027.18
2019-03-21T14:31:18.753Z,1027.18
2019-03-21T14:32:18.746Z,1027.18
2019-03-21T14:33:18.742Z,1027.10
2019-03-21T14:34:18.725Z,1027.19
2019-03-21T14:35:18.716Z,1027.12
2019-03-21T14:36:18.699Z,1027.11
2019-03-21T14:37:18.693Z,1027.11
2019-03-21T14:38:26.057Z,1027.08
2019-03-21T14:39:19.668Z,1027.02
2019-03-21T14:40:18.665Z,1027.06
2019-03-21T14:41:18.646Z,1027.08
2019-03-21T14:42:18.635Z,1027.08
2019-03-21T14:43:18.696Z,1027.07
2019-03-21T14:44:18.624Z,1027.07
2019-03-21T14:45:18.602Z,1027.03
2019-03-21T14:46:18.591Z,1027.05
2019-03-21T14:47:18.581Z,1027.04
2019-03-21T14:48:18.569Z,1027.08
2019-03-21T14:49:18.569Z,1027.07
2019-03-21T14:50:18.549Z,1026.99
2019-03-21T14:51:18.541Z,1027.06
2019-03-21T14:52:18.526Z,1027.01
2019-03-21T14:53:28.270Z,1027.00
2019-03-21T14:54:19.521Z,1027.04
2019-03-21T14:55:18.499Z,1027.01
2019-03-21T14:56:18.487Z,1027.06
2019-03-21T14:57:18.474Z,1027.08
2019-03-21T14:58:18.461Z,1027.02
2019-03-21T14:59:18.468Z,1027.00
2019-03-21T15:00:18.439Z,1027.01
2019-03-21T15:01:18.431Z,1026.96
2019-03-21T15:02:18.418Z,1027.03
2019-03-21T15:03:18.408Z,1026.97
2019-03-21T15:04:18.407Z,1026.94
2019-03-21T15:05:18.387Z,1026.94
2019-03-21T15:06:18.375Z,1026.94
2019-03-21T15:07:18.811Z,1026.93
2019-03-21T15:08:18.353Z,1026.92
2019-03-21T15:09:18.352Z,1026.92
2019-03-21T15:10:18.336Z,1026.91
2019-03-21T15:11:18.325Z,1026.91
2019-03-21T15:12:18.311Z,1026.88
2019-03-21T15:13:18.327Z,1026.85
2019-03-21T15:14:18.322Z,1026.83
2019-03-21T15:15:18.290Z,1026.84
2019-03-21T15:16:18.265Z,1026.87
2019-03-21T15:17:18.254Z,1026.81
2019-03-21T15:18:18.245Z,1026.87
2019-03-21T15:19:18.267Z,1026.76
2019-03-21T15:20:18.223Z,1026.82
2019-03-21T15:21:18.213Z,1026.77
2019-03-21T15:22:18.199Z,1026.79
2019-03-21T15:23:18.189Z,1026.76
2019-03-21T15:24:18.186Z,1026.80
2019-03-21T15:25:18.167Z,1026.82
2019-03-21T15:26:18.157Z,1026.75
2019-03-21T15:27:18.146Z,1026.71
2019-03-21T15:28:18.132Z,1026.75
2019-03-21T15:29:18.133Z,1026.72
2019-03-21T15:30:18.333Z,1026.70
2019-03-21T15:31:18.101Z,1026.76
2019-03-21T15:32:18.105Z,1026.67
2019-03-21T15:33:18.081Z,1026.67
2019-03-21T15:34:18.085Z,1026.67
2019-03-21T15:35:18.062Z,1026.69
2019-03-21T15:36:18.045Z,1026.65
2019-03-21T15:37:19.741Z,1026.62
2019-03-21T15:38:18.023Z,1026.64
2019-03-21T15:39:18.012Z,1026.68
2019-03-21T15:40:18.010Z,1026.66
2019-03-21T15:41:17.991Z,1026.71
2019-03-21T15:42:17.978Z,1026.64
2019-03-21T15:43:17.968Z,1026.62
2019-03-21T15:44:17.955Z,1026.68
2019-03-21T15:45:22.078Z,1026.64
2019-03-21T15:46:18.935Z,1026.64
2019-03-21T15:47:17.924Z,1026.69
2019-03-21T15:48:20.760Z,1026.63
2019-03-21T15:49:18.075Z,1026.61
2019-03-21T15:50:17.906Z,1026.64
2019-03-21T15:51:17.899Z,1026.59
2019-03-21T15:52:17.999Z,1026.58
2019-03-21T15:53:17.856Z,1026.56
2019-03-21T15:54:17.846Z,1026.55
2019-03-21T15:55:17.843Z,1026.58
2019-03-21T15:56:17.828Z,1026.59
2019-03-21T15:57:17.813Z,1026.55
2019-03-21T15:58:17.803Z,1026.58
2019-03-21T15:59:17.794Z,1026.51
2019-03-21T16:00:17.807Z,1026.47
2019-03-21T16:01:17.769Z,1026.43
2019-03-21T16:02:17.777Z,1026.49
2019-03-21T16:03:17.749Z,1026.52
2019-03-21T16:04:17.737Z,1026.47
2019-03-21T16:05:17.735Z,1026.48
2019-03-21T16:06:17.718Z,1026.48
2019-03-21T16:07:17.704Z,1026.45
2019-03-21T16:08:17.691Z,1026.46
2019-03-21T16:09:17.682Z,1026.45
2019-03-21T16:10:17.679Z,1026.44
2019-03-21T16:11:17.660Z,1026.44
2019-03-21T16:12:17.647Z,1026.38
2019-03-21T16:13:17.635Z,1026.44
2019-03-21T16:14:17.624Z,1026.44
2019-03-21T16:15:17.625Z,1026.44
2019-03-21T16:16:17.601Z,1026.46
2019-03-21T16:17:17.594Z,1026.45
2019-03-21T16:18:17.579Z,1026.46
2019-03-21T16:19:17.573Z,1026.45
2019-03-21T16:20:17.575Z,1026.41
2019-03-21T16:21:17.548Z,1026.41
2019-03-21T16:22:17.533Z,1026.44
2019-03-21T16:23:17.532Z,1026.38
2019-03-21T16:24:17.514Z,1026.39
2019-03-21T16:25:17.514Z,1026.40
2019-03-21T16:26:17.491Z,1026.38
2019-03-21T16:27:17.478Z,1026.40
2019-03-21T16:28:20.079Z,1026.33
2019-03-21T16:29:17.464Z,1026.36
2019-03-21T16:30:17.451Z,1026.35
2019-03-21T16:31:17.435Z,1026.35
2019-03-21T16:32:17.421Z,1026.42
2019-03-21T16:33:17.473Z,1026.43
2019-03-21T16:34:17.397Z,1026.37
2019-03-21T16:35:17.401Z,1026.35
2019-03-21T16:36:17.378Z,1026.36
2019-03-21T16:37:17.367Z,1026.33
2019-03-21T16:38:17.430Z,1026.33
2019-03-21T16:39:17.342Z,1026.32
2019-03-21T16:40:17.329Z,1026.33
2019-03-21T16:41:17.326Z,1026.40
2019-03-21T16:42:17.366Z,1026.36
2019-03-21T16:43:17.298Z,1026.33
2019-03-21T16:44:17.285Z,1026.31
2019-03-21T16:45:17.276Z,1026.28
2019-03-21T16:46:17.291Z,1026.26
2019-03-21T16:47:17.251Z,1026.34
2019-03-21T16:48:17.258Z,1026.31
2019-03-21T16:49:17.231Z,1026.29
2019-03-21T16:50:17.217Z,1026.29
2019-03-21T16:51:17.217Z,1026.29
2019-03-21T16:52:17.197Z,1026.28
2019-03-21T16:53:17.181Z,1026.29
2019-03-21T16:54:17.665Z,1026.30
2019-03-21T16:55:17.159Z,1026.31
2019-03-21T16:56:17.155Z,1026.28
2019-03-21T16:57:17.135Z,1026.31
2019-03-21T16:58:17.124Z,1026.26
2019-03-21T16:59:17.111Z,1026.33
2019-03-21T17:00:17.948Z,1026.34
2019-03-21T17:01:17.099Z,1026.31
2019-03-21T17:02:17.080Z,1026.33
2019-03-21T17:03:17.067Z,1026.37
2019-03-21T17:04:17.061Z,1026.35
2019-03-21T17:05:17.046Z,1026.42
2019-03-21T17:06:17.044Z,1026.31
2019-03-21T17:07:17.024Z,1026.34
2019-03-21T17:08:17.029Z,1026.35
2019-03-21T17:09:16.999Z,1026.36
2019-03-21T17:10:17.024Z,1026.38
2019-03-21T17:11:17.010Z,1026.38
2019-03-21T17:12:16.982Z,1026.34
2019-03-21T17:13:16.955Z,1026.34
2019-03-21T17:14:16.947Z,1026.31
2019-03-21T17:15:16.938Z,1026.34
2019-03-21T17:16:16.931Z,1026.28
2019-03-21T17:17:16.911Z,1026.31
2019-03-21T17:18:16.906Z,1026.29
2019-03-21T17:19:16.899Z,1026.31
2019-03-21T17:20:16.885Z,1026.27
2019-03-21T17:21:16.881Z,1026.26
2019-03-21T17:22:16.856Z,1026.33
2019-03-21T17:23:16.846Z,1026.38
2019-03-21T17:24:28.453Z,1026.35
2019-03-21T17:25:17.821Z,1026.34
2019-03-21T17:26:16.823Z,1026.39
2019-03-21T17:27:16.806Z,1026.38
2019-03-21T17:28:16.795Z,1026.41
2019-03-21T17:29:16.779Z,1026.39
2019-03-21T17:30:16.769Z,1026.35
2019-03-21T17:31:16.789Z,1026.38
2019-03-21T17:32:17.460Z,1026.37
2019-03-21T17:33:16.741Z,1026.39
2019-03-21T17:34:16.724Z,1026.37
2019-03-21T17:35:16.713Z,1026.40
2019-03-21T17:36:16.705Z,1026.33
2019-03-21T17:37:16.703Z,1026.38
2019-03-21T17:38:16.684Z,1026.36
2019-03-21T17:39:16.706Z,1026.38
2019-03-21T17:40:16.663Z,1026.37
2019-03-21T17:41:16.649Z,1026.35
2019-03-21T17:42:16.645Z,1026.33
2019-03-21T17:43:16.626Z,1026.36
2019-03-21T17:44:16.617Z,1026.35
2019-03-21T17:45:16.603Z,1026.31
2019-03-21T17:46:16.593Z,1026.35
2019-03-21T17:47:16.593Z,1026.37
2019-03-21T17:48:16.567Z,1026.43
2019-03-21T17:49:16.563Z,1026.42
2019-03-21T17:50:16.549Z,1026.42
2019-03-21T17:51:16.536Z,1026.38
2019-03-21T17:52:16.539Z,1026.43
2019-03-21T17:53:16.513Z,1026.45
2019-03-21T17:54:16.501Z,1026.47
2019-03-21T17:55:16.495Z,1026.45
2019-03-21T17:56:16.480Z,1026.48
2019-03-21T17:57:16.501Z,1026.50
2019-03-21T17:58:16.456Z,1026.44
2019-03-21T17:59:16.446Z,1026.47
2019-03-21T18:00:16.436Z,1026.53
2019-03-21T18:01:16.426Z,1026.49
2019-03-21T18:02:16.432Z,1026.52
2019-03-21T18:03:16.407Z,1026.51
2019-03-21T18:04:16.394Z,1026.44
2019-03-21T18:05:16.381Z,1026.50
2019-03-21T18:06:16.370Z,1026.43
2019-03-21T18:07:16.356Z,1026.42
2019-03-21T18:08:16.355Z,1026.37
2019-03-21T18:09:16.333Z,1026.43
2019-03-21T18:10:16.323Z,1026.48
2019-03-21T18:11:16.312Z,1026.48
2019-03-21T18:12:16.301Z,1026.43
2019-03-21T18:13:16.299Z,1026.42
2019-03-21T18:14:16.279Z,1026.45
2019-03-21T18:15:16.267Z,1026.50
2019-03-21T18:16:18.576Z,1026.56
2019-03-21T18:17:16.245Z,1026.53
2019-03-21T18:18:16.241Z,1026.53
2019-03-21T18:19:16.340Z,1026.59
2019-03-21T18:20:16.216Z,1026.55
2019-03-21T18:21:16.201Z,1026.64
2019-03-21T18:22:16.193Z,1026.61
2019-03-21T18:23:16.230Z,1026.64
2019-03-21T18:24:16.177Z,1026.58
2019-03-21T18:25:16.159Z,1026.66
2019-03-21T18:26:16.146Z,1026.63
2019-03-21T18:27:16.138Z,1026.64
2019-03-21T18:28:16.132Z,1026.62
2019-03-21T18:29:16.116Z,1026.58
2019-03-21T18:30:16.100Z,1026.60
2019-03-21T18:31:16.108Z,1026.57
2019-03-21T18:32:16.154Z,1026.57
2019-03-21T18:33:16.082Z,1026.59
2019-03-21T18:34:16.065Z,1026.60
2019-03-21T18:35:16.072Z,1026.62
2019-03-21T18:36:16.039Z,1026.65
2019-03-21T18:37:16.031Z,1026.68
2019-03-21T18:38:16.025Z,1026.64
2019-03-21T18:39:16.003Z,1026.65
2019-03-21T18:40:15.990Z,1026.64
2019-03-21T18:41:16.002Z,1026.60
2019-03-21T18:42:15.967Z,1026.63
2019-03-21T18:43:15.975Z,1026.62
2019-03-21T18:44:15.942Z,1026.60
2019-03-21T18:45:15.931Z,1026.56
2019-03-21T18:46:15.925Z,1026.60
2019-03-21T18:47:15.984Z,1026.64
2019-03-21T18:48:15.933Z,1026.69
2019-03-21T18:49:15.888Z,1026.69
2019-03-21T18:50:15.887Z,1026.72
2019-03-21T18:51:15.868Z,1026.71
2019-03-21T18:52:15.858Z,1026.70
2019-03-21T18:53:15.855Z,1026.73
2019-03-21T18:54:15.834Z,1026.76
2019-03-21T18:55:15.871Z,1026.78
2019-03-21T18:56:15.813Z,1026.70
2019-03-21T18:57:15.798Z,1026.69
2019-03-21T18:58:15.798Z,1026.71
2019-03-21T18:59:15.786Z,1026.67
2019-03-21T19:00:15.770Z,1026.68
2019-03-21T19:01:15.754Z,1026.65
2019-03-21T19:02:15.741Z,1026.65
2019-03-21T19:03:15.748Z,1026.67
2019-03-21T19:04:15.721Z,1026.67
2019-03-21T19:05:15.719Z,1026.68
2019-03-21T19:06:15.721Z,1026.67
2019-03-21T19:07:15.692Z,1026.68
2019-03-21T19:08:15.680Z,1026.69
2019-03-21T19:09:15.692Z,1026.68
2019-03-21T19:10:15.666Z,1026.65
2019-03-21T19:11:15.656Z,1026.64
2019-03-21T19:12:15.633Z,1026.64
2019-03-21T19:13:15.620Z,1026.73
2019-03-21T19:14:15.625Z,1026.68
2019-03-21T19:15:15.603Z,1026.69
2019-03-21T19:16:15.588Z,1026.72
2019-03-21T19:17:15.576Z,1026.67
2019-03-21T19:18:15.576Z,1026.71
2019-03-21T19:19:15.566Z,1026.75
2019-03-21T19:20:15.542Z,1026.69
2019-03-21T19:21:15.544Z,1026.74
2019-03-21T19:22:15.524Z,1026.68
2019-03-21T19:23:15.532Z,1026.70
2019-03-21T19:24:15.513Z,1026.72
2019-03-21T19:25:19.131Z,1026.69
2019-03-21T19:26:15.477Z,1026.74
2019-03-21T19:27:15.477Z,1026.74
2019-03-21T19:28:15.453Z,1026.80
2019-03-21T19:29:15.456Z,1026.78
2019-03-21T19:30:15.436Z,1026.77
2019-03-21T19:31:15.421Z,1026.76
2019-03-21T19:32:15.411Z,1026.75
2019-03-21T19:33:15.406Z,1026.76
2019-03-21T19:34:15.398Z,1026.79
2019-03-21T19:35:15.376Z,1026.75
2019-03-21T19:36:15.370Z,1026.69
2019-03-21T19:37:15.350Z,1026.73
2019-03-21T19:38:15.416Z,1026.70
2019-03-21T19:39:15.338Z,1026.76
2019-03-21T19:40:15.319Z,1026.81
2019-03-21T19:41:15.308Z,1026.73
2019-03-21T19:42:15.300Z,1026.76
2019-03-21T19:43:15.317Z,1026.83
2019-03-21T19:44:15.282Z,1026.82
2019-03-21T19:45:15.264Z,1026.81
2019-03-21T19:46:15.251Z,1026.83
2019-03-21T19:47:23.835Z,1026.84
2019-03-21T19:48:16.229Z,1026.79
2019-03-21T19:49:15.297Z,1026.78
2019-03-21T19:50:15.225Z,1026.84
2019-03-21T19:51:15.207Z,1026.85
2019-03-21T19:52:15.195Z,1026.80
2019-03-21T19:53:15.173Z,1026.84
2019-03-21T19:54:15.169Z,1026.82
2019-03-21T19:55:15.167Z,1026.84
2019-03-21T19:56:15.161Z,1026.80
2019-03-21T19:57:15.170Z,1026.84
2019-03-21T19:58:15.137Z,1026.79
2019-03-21T19:59:15.120Z,1026.81
2019-03-21T20:00:15.110Z,1026.79
2019-03-21T20:01:15.089Z,1026.78
2019-03-21T20:02:15.088Z,1026.80
2019-03-21T20:03:15.073Z,1026.81
2019-03-21T20:04:15.104Z,1026.84
2019-03-21T20:05:15.082Z,1026.85
2019-03-21T20:06:15.028Z,1026.79
2019-03-21T20:07:15.018Z,1026.80
2019-03-21T20:08:15.008Z,1026.79
2019-03-21T20:09:14.996Z,1026.78
2019-03-21T20:10:14.994Z,1026.72
2019-03-21T20:11:15.114Z,1026.76
2019-03-21T20:12:15.027Z,1026.79
2019-03-21T20:13:15.010Z,1026.83
2019-03-21T20:14:14.996Z,1026.84
2019-03-21T20:15:14.946Z,1026.84
2019-03-21T20:16:14.921Z,1026.83
2019-03-21T20:17:14.919Z,1026.79
2019-03-21T20:18:14.895Z,1026.86
2019-03-21T20:19:14.966Z,1026.84
2019-03-21T20:20:15.016Z,1026.88
2019-03-21T20:21:14.928Z,1026.83
2019-03-21T20:22:14.928Z,1026.86
2019-03-21T20:23:14.841Z,1026.85
2019-03-21T20:24:14.829Z,1026.84
2019-03-21T20:25:14.839Z,1026.80
2019-03-21T20:26:14.807Z,1026.81
2019-03-21T20:27:14.816Z,1026.83
2019-03-21T20:28:14.785Z,1026.81
2019-03-21T20:29:14.891Z,1026.85
2019-03-21T20:30:14.784Z,1026.84
2019-03-21T20:31:14.749Z,1026.87
2019-03-21T20:32:20.501Z,1026.86
2019-03-21T20:33:15.731Z,1026.86
2019-03-21T20:34:14.737Z,1026.80
2019-03-21T20:35:14.712Z,1026.83
2019-03-21T20:36:14.712Z,1026.86
2019-03-21T20:37:14.690Z,1026.86
2019-03-21T20:38:14.682Z,1026.89
2019-03-21T20:39:14.663Z,1026.86
2019-03-21T20:40:14.654Z,1026.88
2019-03-21T20:41:14.650Z,1026.81
2019-03-21T20:42:14.629Z,1026.85
2019-03-21T20:43:14.636Z,1026.90
2019-03-21T20:44:15.616Z,1026.87
2019-03-21T20:45:14.596Z,1026.82
2019-03-21T20:46:14.591Z,1026.86
2019-03-21T20:47:14.572Z,1026.83
2019-03-21T20:48:14.562Z,1026.77
2019-03-21T20:49:14.548Z,1026.78